Terminal Aerodrome Forecast
Issued by NWS

Current Version | Previous Version | Graphics & Text | Print | Product List | Glossary On
Versions: 1 2 3 4 5 6 7 8 9 10 11 12 13 14 15 16 17 18 19 20 21
000
FTUS41 KILN 241130
TAFLUK
TAF
KLUK 241130Z 2412/2512 00000KT P6SM SKC
      TEMPO 2412/2413 5SM BR
     FM241400 19006KT P6SM FEW250
     FM241700 19010KT P6SM SCT250
     FM250200 20007KT P6SM BKN250 WS020/22035KT
     FM250800 23009KT P6SM BKN110=

USA.gov is the U.S. government's official web portal to all federal, state and local government web resources and services.